메인 페이지
METAR-TAF:

METAR-TAF

공항 :

Bobby L. Chain Municipal Airport

Hattiesburg, 미시시피, 미국

위도: 31-15-54N, 경도: 089-15-11W, 고도: 46m

현재 날씨관측

예보는 1 시간 2분 전, 09:53시(UTC)에 발표되었습니다.
무풍
온도 16°C
습도 88%
기압 1018 hPa
시정: 16.1km
맑음

METAR: KHBG 060953Z AUTO 00000KT 10SM CLR 16/14 A3006 RMK AO2 SLP174 T01560144

시각: 05:55 (10:55 UTC)

예보

예보는 55분 전, 10:00시(UTC)에 발표되었습니다.
예보 대상 시간: 06일 10시부터 07일 06시까지 (UTC)
kt
시정: 10km
고도 25000ft 상공 흐림
06일 1100시부터 (UTC)
kt
시정: 6.4km
고도 2500ft 상공 구름 보통
고도 25000ft 상공 흐림
박무
06일 1400시부터 (UTC)
6kt
시정: 10km
고도 7000ft 상공 구름 보통
고도 25000ft 상공 구름 많음

TAF: KHBG 061000Z 0610/0706 00000KT P6SM OVC250 FM061100 00000KT 4SM BR SCT025 OVC250 FM061400 18006KT P6SM SCT070 BKN250

4,000개 이상의 공항 관측 자료 및 예보 (METAR 및 TAF 보고).

지도상에서 검색 가능한 기상관측소가 노란 점과 빨간 점으로 표시되어 있습니다.

기상관측소 명을 보려면 표시 위로 마우스를 이동하세요.

날씨 관측과 예보를 보려면 클릭하세요.

지도 변경 : 확대하려면 엑스 표시가 있는 녹색 버튼, 축소하려면 빼기 표시가 있는 녹색 버튼, 다음 페이지의 지도를 보려면 녹색 화살표를 클릭하세요.


METAR-TAF: